sensor_id;sensor_type;location;lat;lon;timestamp;P1;durP1;ratioP1;P2;durP2;ratioP2
1206;SDS011;593;53.184;8.216;2023-06-22T00:00:51;15.90;;;14.40;;
1206;SDS011;593;53.184;8.216;2023-06-22T00:03:17;17.00;;;15.40;;
1206;SDS011;593;53.184;8.216;2023-06-22T00:05:44;15.40;;;13.87;;
1206;SDS011;593;53.184;8.216;2023-06-22T00:08:10;15.87;;;14.30;;
1206;SDS011;593;53.184;8.216;2023-06-22T00:10:35;13.97;;;12.67;;
1206;SDS011;593;53.184;8.216;2023-06-22T00:13:00;16.27;;;14.50;;
1206;SDS011;593;53.184;8.216;2023-06-22T00:15:26;14.13;;;12.83;;
1206;SDS011;593;53.184;8.216;2023-06-22T00:17:52;15.33;;;13.93;;
1206;SDS011;593;53.184;8.216;2023-06-22T00:20:17;16.63;;;15.00;;
1206;SDS011;593;53.184;8.216;2023-06-22T00:22:43;15.97;;;14.30;;
1206;SDS011;593;53.184;8.216;2023-06-22T00:25:12;16.87;;;15.20;;
1206;SDS011;593;53.184;8.216;2023-06-22T00:27:38;15.07;;;13.57;;
1206;SDS011;593;53.184;8.216;2023-06-22T00:30:03;14.67;;;13.27;;
1206;SDS011;593;53.184;8.216;2023-06-22T00:32:29;13.20;;;11.83;;
1206;SDS011;593;53.184;8.216;2023-06-22T00:34:54;15.20;;;12.80;;
1206;SDS011;593;53.184;8.216;2023-06-22T00:37:20;17.03;;;15.37;;
1206;SDS011;593;53.184;8.216;2023-06-22T00:39:50;15.00;;;13.53;;
1206;SDS011;593;53.184;8.216;2023-06-22T00:42:16;15.00;;;13.60;;
1206;SDS011;593;53.184;8.216;2023-06-22T00:44:41;16.50;;;14.90;;
1206;SDS011;593;53.184;8.216;2023-06-22T00:47:07;17.33;;;15.47;;
1206;SDS011;593;53.184;8.216;2023-06-22T00:49:32;19.07;;;15.70;;
1206;SDS011;593;53.184;8.216;2023-06-22T00:51:58;18.30;;;16.53;;
1206;SDS011;593;53.184;8.216;2023-06-22T00:54:24;17.47;;;15.63;;
1206;SDS011;593;53.184;8.216;2023-06-22T00:56:53;17.40;;;15.70;;
1206;SDS011;593;53.184;8.216;2023-06-22T00:59:23;17.20;;;15.60;;
1206;SDS011;593;53.184;8.216;2023-06-22T01:01:49;17.43;;;15.67;;
1206;SDS011;593;53.184;8.216;2023-06-22T01:04:15;17.03;;;15.33;;
1206;SDS011;593;53.184;8.216;2023-06-22T01:07:26;17.00;;;15.40;;
1206;SDS011;593;53.184;8.216;2023-06-22T01:09:39;16.30;;;14.70;;
1206;SDS011;593;53.184;8.216;2023-06-22T01:12:14;16.17;;;14.43;;
1206;SDS011;593;53.184;8.216;2023-06-22T01:14:43;17.10;;;15.30;;
1206;SDS011;593;53.184;8.216;2023-06-22T01:17:17;18.77;;;17.07;;
1206;SDS011;593;53.184;8.216;2023-06-22T01:19:46;16.07;;;14.47;;
1206;SDS011;593;53.184;8.216;2023-06-22T01:22:17;16.67;;;14.97;;
1206;SDS011;593;53.184;8.216;2023-06-22T01:30:25;15.97;;;14.10;;
1206;SDS011;593;53.184;8.216;2023-06-22T01:32:54;16.47;;;14.87;;
1206;SDS011;593;53.184;8.216;2023-06-22T01:35:23;18.33;;;14.70;;
1206;SDS011;593;53.184;8.216;2023-06-22T01:37:49;17.50;;;15.80;;
1206;SDS011;593;53.184;8.216;2023-06-22T01:40:15;17.20;;;14.70;;
1206;SDS011;593;53.184;8.216;2023-06-22T01:42:41;17.30;;;15.57;;
1206;SDS011;593;53.184;8.216;2023-06-22T01:45:08;17.30;;;15.50;;
1206;SDS011;593;53.184;8.216;2023-06-22T01:47:36;16.73;;;15.13;;
1206;SDS011;593;53.184;8.216;2023-06-22T01:50:01;18.60;;;16.70;;
1206;SDS011;593;53.184;8.216;2023-06-22T01:52:27;16.90;;;15.20;;
1206;SDS011;593;53.184;8.216;2023-06-22T01:54:52;15.73;;;14.23;;
1206;SDS011;593;53.184;8.216;2023-06-22T01:57:18;16.53;;;14.90;;
1206;SDS011;593;53.184;8.216;2023-06-22T02:02:24;18.80;;;16.13;;
1206;SDS011;593;53.184;8.216;2023-06-22T02:04:56;17.10;;;15.00;;
1206;SDS011;593;53.184;8.216;2023-06-22T02:07:26;18.40;;;16.40;;
1206;SDS011;593;53.184;8.216;2023-06-22T02:09:57;19.57;;;17.57;;
1206;SDS011;593;53.184;8.216;2023-06-22T02:12:24;20.63;;;17.07;;
1206;SDS011;593;53.184;8.216;2023-06-22T02:14:52;19.60;;;17.60;;
1206;SDS011;593;53.184;8.216;2023-06-22T02:17:18;17.30;;;15.60;;
1206;SDS011;593;53.184;8.216;2023-06-22T02:19:43;18.07;;;16.33;;
1206;SDS011;593;53.184;8.216;2023-06-22T02:22:09;20.93;;;18.73;;
1206;SDS011;593;53.184;8.216;2023-06-22T02:24:34;19.20;;;17.20;;
1206;SDS011;593;53.184;8.216;2023-06-22T02:27:00;19.80;;;17.70;;
1206;SDS011;593;53.184;8.216;2023-06-22T02:29:26;20.50;;;18.40;;
1206;SDS011;593;53.184;8.216;2023-06-22T02:31:52;19.80;;;17.73;;
1206;SDS011;593;53.184;8.216;2023-06-22T02:34:18;21.10;;;18.90;;
1206;SDS011;593;53.184;8.216;2023-06-22T02:36:47;21.47;;;18.63;;
1206;SDS011;593;53.184;8.216;2023-06-22T02:41:44;20.27;;;18.30;;
1206;SDS011;593;53.184;8.216;2023-06-22T02:44:09;20.47;;;17.60;;
1206;SDS011;593;53.184;8.216;2023-06-22T02:46:35;19.67;;;17.70;;
1206;SDS011;593;53.184;8.216;2023-06-22T02:49:01;19.50;;;17.50;;
1206;SDS011;593;53.184;8.216;2023-06-22T02:51:26;19.23;;;17.33;;
1206;SDS011;593;53.184;8.216;2023-06-22T02:53:51;22.00;;;19.13;;
1206;SDS011;593;53.184;8.216;2023-06-22T02:56:22;20.20;;;17.07;;
1206;SDS011;593;53.184;8.216;2023-06-22T02:58:50;20.07;;;18.10;;
1206;SDS011;593;53.184;8.216;2023-06-22T03:01:16;18.67;;;16.87;;
1206;SDS011;593;53.184;8.216;2023-06-22T03:03:41;20.63;;;18.53;;
1206;SDS011;593;53.184;8.216;2023-06-22T03:06:07;20.77;;;18.53;;
1206;SDS011;593;53.184;8.216;2023-06-22T03:08:32;18.53;;;16.73;;
1206;SDS011;593;53.184;8.216;2023-06-22T03:10:59;19.57;;;17.50;;
1206;SDS011;593;53.184;8.216;2023-06-22T03:13:24;18.83;;;16.87;;
1206;SDS011;593;53.184;8.216;2023-06-22T03:15:50;19.80;;;17.90;;
1206;SDS011;593;53.184;8.216;2023-06-22T03:18:15;18.97;;;17.07;;
1206;SDS011;593;53.184;8.216;2023-06-22T03:20:40;18.80;;;16.90;;
1206;SDS011;593;53.184;8.216;2023-06-22T03:23:06;20.77;;;18.60;;
1206;SDS011;593;53.184;8.216;2023-06-22T03:25:31;20.27;;;18.10;;
1206;SDS011;593;53.184;8.216;2023-06-22T03:27:58;19.80;;;17.70;;
1206;SDS011;593;53.184;8.216;2023-06-22T03:30:25;21.10;;;19.00;;
1206;SDS011;593;53.184;8.216;2023-06-22T03:32:51;19.80;;;17.90;;
1206;SDS011;593;53.184;8.216;2023-06-22T03:35:16;18.03;;;16.23;;
1206;SDS011;593;53.184;8.216;2023-06-22T03:37:42;19.90;;;17.90;;
1206;SDS011;593;53.184;8.216;2023-06-22T03:40:07;19.07;;;17.27;;
1206;SDS011;593;53.184;8.216;2023-06-22T03:42:33;19.93;;;17.97;;
1206;SDS011;593;53.184;8.216;2023-06-22T03:45:02;20.07;;;17.97;;
1206;SDS011;593;53.184;8.216;2023-06-22T03:47:28;18.63;;;16.73;;
1206;SDS011;593;53.184;8.216;2023-06-22T03:49:54;20.27;;;18.10;;
1206;SDS011;593;53.184;8.216;2023-06-22T03:52:20;19.00;;;17.10;;
1206;SDS011;593;53.184;8.216;2023-06-22T03:54:47;20.13;;;18.13;;
1206;SDS011;593;53.184;8.216;2023-06-22T03:57:12;23.27;;;18.97;;
1206;SDS011;593;53.184;8.216;2023-06-22T03:59:37;22.00;;;19.80;;
1206;SDS011;593;53.184;8.216;2023-06-22T04:02:03;22.30;;;20.10;;
1206;SDS011;593;53.184;8.216;2023-06-22T04:04:31;23.37;;;20.97;;
1206;SDS011;593;53.184;8.216;2023-06-22T04:06:57;18.27;;;16.27;;
1206;SDS011;593;53.184;8.216;2023-06-22T04:09:22;19.87;;;17.47;;
1206;SDS011;593;53.184;8.216;2023-06-22T04:11:47;20.57;;;18.57;;
1206;SDS011;593;53.184;8.216;2023-06-22T04:14:13;22.17;;;19.80;;
1206;SDS011;593;53.184;8.216;2023-06-22T04:16:38;19.53;;;17.63;;
1206;SDS011;593;53.184;8.216;2023-06-22T04:19:03;19.63;;;17.47;;
1206;SDS011;593;53.184;8.216;2023-06-22T04:21:29;20.90;;;18.73;;
1206;SDS011;593;53.184;8.216;2023-06-22T04:23:54;21.70;;;19.57;;
1206;SDS011;593;53.184;8.216;2023-06-22T04:26:19;21.97;;;19.77;;
1206;SDS011;593;53.184;8.216;2023-06-22T04:28:46;20.90;;;18.70;;
1206;SDS011;593;53.184;8.216;2023-06-22T04:31:16;23.00;;;20.70;;
1206;SDS011;593;53.184;8.216;2023-06-22T04:33:44;22.50;;;20.30;;
1206;SDS011;593;53.184;8.216;2023-06-22T04:36:09;20.87;;;18.90;;
1206;SDS011;593;53.184;8.216;2023-06-22T04:38:38;21.80;;;19.60;;
1206;SDS011;593;53.184;8.216;2023-06-22T04:41:03;24.33;;;21.83;;
1206;SDS011;593;53.184;8.216;2023-06-22T04:43:29;26.20;;;23.37;;
1206;SDS011;593;53.184;8.216;2023-06-22T04:45:55;24.57;;;21.97;;
1206;SDS011;593;53.184;8.216;2023-06-22T04:48:21;26.63;;;23.57;;
1206;SDS011;593;53.184;8.216;2023-06-22T04:50:47;27.00;;;24.00;;
1206;SDS011;593;53.184;8.216;2023-06-22T04:53:12;26.83;;;24.00;;
1206;SDS011;593;53.184;8.216;2023-06-22T04:55:38;25.17;;;22.47;;
1206;SDS011;593;53.184;8.216;2023-06-22T04:58:06;26.00;;;23.07;;
1206;SDS011;593;53.184;8.216;2023-06-22T05:00:32;24.00;;;21.20;;
1206;SDS011;593;53.184;8.216;2023-06-22T05:03:01;24.87;;;22.10;;
1206;SDS011;593;53.184;8.216;2023-06-22T05:05:28;24.43;;;21.83;;
1206;SDS011;593;53.184;8.216;2023-06-22T05:07:53;25.10;;;21.07;;
1206;SDS011;593;53.184;8.216;2023-06-22T05:10:25;22.93;;;20.10;;
1206;SDS011;593;53.184;8.216;2023-06-22T05:12:50;23.77;;;20.00;;
1206;SDS011;593;53.184;8.216;2023-06-22T05:15:16;23.53;;;20.70;;
1206;SDS011;593;53.184;8.216;2023-06-22T05:17:41;24.57;;;19.20;;
1206;SDS011;593;53.184;8.216;2023-06-22T05:20:13;22.50;;;19.60;;
1206;SDS011;593;53.184;8.216;2023-06-22T05:22:39;23.20;;;20.70;;
1206;SDS011;593;53.184;8.216;2023-06-22T05:25:05;21.67;;;19.43;;
1206;SDS011;593;53.184;8.216;2023-06-22T05:27:33;20.23;;;18.10;;
1206;SDS011;593;53.184;8.216;2023-06-22T05:29:59;22.30;;;19.70;;
1206;SDS011;593;53.184;8.216;2023-06-22T05:32:27;22.67;;;19.77;;
1206;SDS011;593;53.184;8.216;2023-06-22T05:34:52;23.43;;;19.27;;
1206;SDS011;593;53.184;8.216;2023-06-22T05:37:18;21.40;;;19.03;;
1206;SDS011;593;53.184;8.216;2023-06-22T05:39:43;22.77;;;18.50;;
1206;SDS011;593;53.184;8.216;2023-06-22T05:42:08;20.47;;;18.37;;
1206;SDS011;593;53.184;8.216;2023-06-22T05:44:34;20.60;;;18.50;;
1206;SDS011;593;53.184;8.216;2023-06-22T05:46:59;18.50;;;16.53;;
1206;SDS011;593;53.184;8.216;2023-06-22T05:49:24;19.60;;;17.50;;
1206;SDS011;593;53.184;8.216;2023-06-22T05:51:54;17.43;;;15.70;;
1206;SDS011;593;53.184;8.216;2023-06-22T05:54:20;17.30;;;15.60;;
1206;SDS011;593;53.184;8.216;2023-06-22T05:56:45;18.70;;;16.90;;
1206;SDS011;593;53.184;8.216;2023-06-22T05:59:11;18.93;;;17.10;;
1206;SDS011;593;53.184;8.216;2023-06-22T06:01:37;17.60;;;15.20;;
1206;SDS011;593;53.184;8.216;2023-06-22T06:04:03;17.23;;;14.83;;
1206;SDS011;593;53.184;8.216;2023-06-22T06:06:29;15.93;;;12.87;;
1206;SDS011;593;53.184;8.216;2023-06-22T06:08:54;12.73;;;11.40;;
1206;SDS011;593;53.184;8.216;2023-06-22T06:11:21;13.90;;;12.50;;
1206;SDS011;593;53.184;8.216;2023-06-22T06:13:46;14.67;;;12.43;;
1206;SDS011;593;53.184;8.216;2023-06-22T06:16:12;13.80;;;12.40;;
1206;SDS011;593;53.184;8.216;2023-06-22T06:18:37;12.10;;;10.80;;
1206;SDS011;593;53.184;8.216;2023-06-22T06:21:03;11.90;;;10.53;;
1206;SDS011;593;53.184;8.216;2023-06-22T06:23:28;10.50;;;9.50;;
1206;SDS011;593;53.184;8.216;2023-06-22T06:25:53;11.00;;;9.80;;
1206;SDS011;593;53.184;8.216;2023-06-22T06:28:19;8.80;;;8.00;;
1206;SDS011;593;53.184;8.216;2023-06-22T06:30:44;8.93;;;7.70;;
1206;SDS011;593;53.184;8.216;2023-06-22T06:33:12;7.03;;;6.33;;
1206;SDS011;593;53.184;8.216;2023-06-22T06:35:37;6.77;;;6.17;;
1206;SDS011;593;53.184;8.216;2023-06-22T06:38:03;7.90;;;7.20;;
1206;SDS011;593;53.184;8.216;2023-06-22T06:40:28;6.80;;;5.97;;
1206;SDS011;593;53.184;8.216;2023-06-22T06:42:54;7.70;;;7.10;;
1206;SDS011;593;53.184;8.216;2023-06-22T06:45:22;7.47;;;6.77;;
1206;SDS011;593;53.184;8.216;2023-06-22T06:47:49;9.13;;;8.23;;
1206;SDS011;593;53.184;8.216;2023-06-22T06:50:15;9.07;;;8.17;;
1206;SDS011;593;53.184;8.216;2023-06-22T06:52:41;7.40;;;6.80;;
1206;SDS011;593;53.184;8.216;2023-06-22T06:55:07;7.97;;;7.27;;
1206;SDS011;593;53.184;8.216;2023-06-22T06:57:34;8.63;;;7.83;;
1206;SDS011;593;53.184;8.216;2023-06-22T06:59:59;7.10;;;6.50;;
1206;SDS011;593;53.184;8.216;2023-06-22T07:02:25;7.70;;;7.00;;
1206;SDS011;593;53.184;8.216;2023-06-22T07:04:54;5.70;;;5.20;;
1206;SDS011;593;53.184;8.216;2023-06-22T07:07:22;8.07;;;7.37;;
1206;SDS011;593;53.184;8.216;2023-06-22T07:09:47;5.97;;;5.33;;
1206;SDS011;593;53.184;8.216;2023-06-22T07:12:13;6.90;;;5.60;;
1206;SDS011;593;53.184;8.216;2023-06-22T07:14:38;6.90;;;6.07;;
1206;SDS011;593;53.184;8.216;2023-06-22T07:17:04;7.70;;;7.00;;
1206;SDS011;593;53.184;8.216;2023-06-22T07:19:29;6.77;;;5.97;;
1206;SDS011;593;53.184;8.216;2023-06-22T07:21:56;8.77;;;6.20;;
1206;SDS011;593;53.184;8.216;2023-06-22T07:24:21;5.60;;;5.10;;
1206;SDS011;593;53.184;8.216;2023-06-22T07:26:48;5.80;;;5.23;;
1206;SDS011;593;53.184;8.216;2023-06-22T07:29:15;7.80;;;6.20;;
1206;SDS011;593;53.184;8.216;2023-06-22T07:31:45;6.10;;;5.37;;
1206;SDS011;593;53.184;8.216;2023-06-22T07:34:11;4.90;;;4.50;;
1206;SDS011;593;53.184;8.216;2023-06-22T07:36:37;4.87;;;4.53;;
1206;SDS011;593;53.184;8.216;2023-06-22T07:39:03;5.13;;;4.70;;
1206;SDS011;593;53.184;8.216;2023-06-22T07:41:29;5.30;;;3.73;;
1206;SDS011;593;53.184;8.216;2023-06-22T07:43:55;3.50;;;3.20;;
1206;SDS011;593;53.184;8.216;2023-06-22T07:46:20;4.50;;;3.87;;
1206;SDS011;593;53.184;8.216;2023-06-22T07:48:45;3.63;;;3.40;;
1206;SDS011;593;53.184;8.216;2023-06-22T07:51:11;3.80;;;3.50;;
1206;SDS011;593;53.184;8.216;2023-06-22T07:53:42;4.50;;;4.10;;
1206;SDS011;593;53.184;8.216;2023-06-22T07:56:11;3.63;;;3.13;;
1206;SDS011;593;53.184;8.216;2023-06-22T07:58:37;3.80;;;3.50;;
1206;SDS011;593;53.184;8.216;2023-06-22T08:01:03;3.67;;;3.27;;
1206;SDS011;593;53.184;8.216;2023-06-22T08:03:29;3.27;;;2.97;;
1206;SDS011;593;53.184;8.216;2023-06-22T08:05:54;2.30;;;2.17;;
1206;SDS011;593;53.184;8.216;2023-06-22T08:08:20;3.90;;;3.60;;
1206;SDS011;593;53.184;8.216;2023-06-22T08:10:45;3.23;;;2.50;;
1206;SDS011;593;53.184;8.216;2023-06-22T08:13:11;3.50;;;3.20;;
1206;SDS011;593;53.184;8.216;2023-06-22T08:15:36;3.47;;;2.77;;
1206;SDS011;593;53.184;8.216;2023-06-22T08:18:01;3.17;;;2.97;;
1206;SDS011;593;53.184;8.216;2023-06-22T08:20:27;3.67;;;3.37;;
1206;SDS011;593;53.184;8.216;2023-06-22T08:22:53;3.40;;;3.10;;
1206;SDS011;593;53.184;8.216;2023-06-22T08:25:19;3.07;;;2.80;;
1206;SDS011;593;53.184;8.216;2023-06-22T08:27:46;2.63;;;2.43;;
1206;SDS011;593;53.184;8.216;2023-06-22T08:30:12;3.57;;;3.27;;
1206;SDS011;593;53.184;8.216;2023-06-22T08:32:38;4.17;;;3.77;;
1206;SDS011;593;53.184;8.216;2023-06-22T08:35:03;3.33;;;3.13;;
1206;SDS011;593;53.184;8.216;2023-06-22T08:37:30;2.67;;;2.47;;
1206;SDS011;593;53.184;8.216;2023-06-22T08:39:59;5.10;;;3.50;;
1206;SDS011;593;53.184;8.216;2023-06-22T08:42:26;3.50;;;3.20;;
1206;SDS011;593;53.184;8.216;2023-06-22T08:44:51;3.93;;;3.73;;
1206;SDS011;593;53.184;8.216;2023-06-22T08:47:17;4.00;;;3.67;;
1206;SDS011;593;53.184;8.216;2023-06-22T08:49:43;4.40;;;4.00;;
1206;SDS011;593;53.184;8.216;2023-06-22T08:52:09;3.73;;;3.00;;
1206;SDS011;593;53.184;8.216;2023-06-22T08:54:35;3.60;;;3.23;;
1206;SDS011;593;53.184;8.216;2023-06-22T08:57:01;3.00;;;2.80;;
1206;SDS011;593;53.184;8.216;2023-06-22T08:59:27;4.30;;;3.90;;
1206;SDS011;593;53.184;8.216;2023-06-22T09:01:53;3.30;;;3.10;;
1206;SDS011;593;53.184;8.216;2023-06-22T09:04:18;3.47;;;2.60;;
1206;SDS011;593;53.184;8.216;2023-06-22T09:06:47;3.33;;;3.03;;
1206;SDS011;593;53.184;8.216;2023-06-22T09:09:12;3.00;;;2.80;;
1206;SDS011;593;53.184;8.216;2023-06-22T09:11:39;3.97;;;3.57;;
1206;SDS011;593;53.184;8.216;2023-06-22T09:14:05;4.40;;;4.00;;
1206;SDS011;593;53.184;8.216;2023-06-22T09:16:31;3.43;;;3.13;;
1206;SDS011;593;53.184;8.216;2023-06-22T09:18:56;4.53;;;4.17;;
1206;SDS011;593;53.184;8.216;2023-06-22T09:21:23;3.90;;;3.50;;
1206;SDS011;593;53.184;8.216;2023-06-22T09:23:48;6.90;;;4.10;;
1206;SDS011;593;53.184;8.216;2023-06-22T09:26:16;4.50;;;3.77;;
1206;SDS011;593;53.184;8.216;2023-06-22T09:28:45;3.53;;;3.23;;
1206;SDS011;593;53.184;8.216;2023-06-22T09:31:11;3.87;;;3.57;;
1206;SDS011;593;53.184;8.216;2023-06-22T09:33:36;4.20;;;3.87;;
1206;SDS011;593;53.184;8.216;2023-06-22T09:36:06;4.97;;;4.47;;
1206;SDS011;593;53.184;8.216;2023-06-22T09:38:34;3.60;;;3.30;;
1206;SDS011;593;53.184;8.216;2023-06-22T09:41:00;4.00;;;3.70;;
1206;SDS011;593;53.184;8.216;2023-06-22T09:43:26;3.77;;;3.10;;
1206;SDS011;593;53.184;8.216;2023-06-22T09:45:52;2.80;;;2.67;;
1206;SDS011;593;53.184;8.216;2023-06-22T09:48:17;3.37;;;3.07;;
1206;SDS011;593;53.184;8.216;2023-06-22T09:50:43;3.27;;;3.00;;
1206;SDS011;593;53.184;8.216;2023-06-22T09:53:09;2.33;;;2.20;;
1206;SDS011;593;53.184;8.216;2023-06-22T09:55:34;2.73;;;2.53;;
1206;SDS011;593;53.184;8.216;2023-06-22T09:57:59;3.30;;;3.00;;
1206;SDS011;593;53.184;8.216;2023-06-22T10:00:25;2.67;;;2.57;;
1206;SDS011;593;53.184;8.216;2023-06-22T10:02:51;3.80;;;2.77;;
1206;SDS011;593;53.184;8.216;2023-06-22T10:05:17;3.70;;;3.40;;
1206;SDS011;593;53.184;8.216;2023-06-22T10:07:42;4.93;;;2.80;;
1206;SDS011;593;53.184;8.216;2023-06-22T10:10:09;3.10;;;2.90;;
1206;SDS011;593;53.184;8.216;2023-06-22T10:12:35;2.40;;;2.30;;
1206;SDS011;593;53.184;8.216;2023-06-22T10:15:01;3.60;;;3.40;;
1206;SDS011;593;53.184;8.216;2023-06-22T10:17:26;3.20;;;3.00;;
1206;SDS011;593;53.184;8.216;2023-06-22T10:19:51;3.43;;;3.23;;
1206;SDS011;593;53.184;8.216;2023-06-22T10:22:17;3.60;;;3.33;;
1206;SDS011;593;53.184;8.216;2023-06-22T10:24:42;3.00;;;2.83;;
1206;SDS011;593;53.184;8.216;2023-06-22T10:27:12;3.90;;;3.70;;
1206;SDS011;593;53.184;8.216;2023-06-22T10:29:38;4.70;;;4.30;;
1206;SDS011;593;53.184;8.216;2023-06-22T10:32:04;3.77;;;3.47;;
1206;SDS011;593;53.184;8.216;2023-06-22T10:34:29;4.30;;;3.43;;
1206;SDS011;593;53.184;8.216;2023-06-22T10:36:55;3.13;;;2.93;;
1206;SDS011;593;53.184;8.216;2023-06-22T10:39:20;4.50;;;3.80;;
1206;SDS011;593;53.184;8.216;2023-06-22T10:41:45;5.20;;;3.67;;
1206;SDS011;593;53.184;8.216;2023-06-22T10:44:11;3.50;;;3.23;;
1206;SDS011;593;53.184;8.216;2023-06-22T10:46:37;4.40;;;4.00;;
1206;SDS011;593;53.184;8.216;2023-06-22T10:49:02;3.60;;;3.30;;
1206;SDS011;593;53.184;8.216;2023-06-22T10:51:28;5.17;;;4.77;;
1206;SDS011;593;53.184;8.216;2023-06-22T10:53:53;3.63;;;3.43;;
1206;SDS011;593;53.184;8.216;2023-06-22T10:56:18;3.90;;;3.60;;
1206;SDS011;593;53.184;8.216;2023-06-22T10:58:44;4.33;;;4.00;;
1206;SDS011;593;53.184;8.216;2023-06-22T11:01:10;3.13;;;2.93;;
1206;SDS011;593;53.184;8.216;2023-06-22T11:03:35;5.40;;;5.00;;
1206;SDS011;593;53.184;8.216;2023-06-22T11:06:00;4.00;;;3.70;;
1206;SDS011;593;53.184;8.216;2023-06-22T11:08:26;3.70;;;3.50;;
1206;SDS011;593;53.184;8.216;2023-06-22T11:10:51;4.13;;;3.80;;
1206;SDS011;593;53.184;8.216;2023-06-22T11:13:17;3.87;;;3.57;;
1206;SDS011;593;53.184;8.216;2023-06-22T11:15:42;3.67;;;3.47;;
1206;SDS011;593;53.184;8.216;2023-06-22T11:18:08;3.20;;;3.00;;
1206;SDS011;593;53.184;8.216;2023-06-22T11:20:33;5.57;;;5.17;;
1206;SDS011;593;53.184;8.216;2023-06-22T11:23:03;5.40;;;4.70;;
1206;SDS011;593;53.184;8.216;2023-06-22T11:25:28;4.10;;;3.70;;
1206;SDS011;593;53.184;8.216;2023-06-22T11:27:54;3.43;;;3.20;;
1206;SDS011;593;53.184;8.216;2023-06-22T11:30:19;4.13;;;3.83;;
1206;SDS011;593;53.184;8.216;2023-06-22T11:32:45;3.10;;;2.90;;
1206;SDS011;593;53.184;8.216;2023-06-22T11:35:10;4.57;;;3.87;;
1206;SDS011;593;53.184;8.216;2023-06-22T11:37:35;2.90;;;2.80;;
1206;SDS011;593;53.184;8.216;2023-06-22T11:40:00;3.80;;;3.60;;
1206;SDS011;593;53.184;8.216;2023-06-22T11:42:28;4.20;;;3.23;;
1206;SDS011;593;53.184;8.216;2023-06-22T11:44:53;3.83;;;3.10;;
1206;SDS011;593;53.184;8.216;2023-06-22T11:47:18;3.27;;;3.07;;
1206;SDS011;593;53.184;8.216;2023-06-22T11:49:44;4.50;;;4.10;;
1206;SDS011;593;53.184;8.216;2023-06-22T11:52:09;3.60;;;3.30;;
1206;SDS011;593;53.184;8.216;2023-06-22T11:54:34;3.43;;;3.23;;
1206;SDS011;593;53.184;8.216;2023-06-22T11:57:00;3.67;;;3.47;;
1206;SDS011;593;53.184;8.216;2023-06-22T11:59:25;3.37;;;3.07;;
1206;SDS011;593;53.184;8.216;2023-06-22T12:01:50;3.70;;;3.50;;
1206;SDS011;593;53.184;8.216;2023-06-22T12:04:16;4.67;;;4.27;;
1206;SDS011;593;53.184;8.216;2023-06-22T12:06:42;3.77;;;3.47;;
1206;SDS011;593;53.184;8.216;2023-06-22T12:09:08;3.70;;;3.50;;
1206;SDS011;593;53.184;8.216;2023-06-22T12:11:34;4.07;;;3.77;;
1206;SDS011;593;53.184;8.216;2023-06-22T12:13:59;3.70;;;3.40;;
1206;SDS011;593;53.184;8.216;2023-06-22T12:16:27;3.50;;;3.30;;
1206;SDS011;593;53.184;8.216;2023-06-22T12:18:53;3.50;;;3.30;;
1206;SDS011;593;53.184;8.216;2023-06-22T12:21:18;3.53;;;3.23;;
1206;SDS011;593;53.184;8.216;2023-06-22T12:23:44;4.03;;;3.20;;
1206;SDS011;593;53.184;8.216;2023-06-22T12:26:09;3.80;;;3.50;;
1206;SDS011;593;53.184;8.216;2023-06-22T12:28:34;3.83;;;3.53;;
1206;SDS011;593;53.184;8.216;2023-06-22T12:31:00;4.03;;;3.73;;
1206;SDS011;593;53.184;8.216;2023-06-22T12:33:25;4.03;;;3.73;;
1206;SDS011;593;53.184;8.216;2023-06-22T12:35:50;5.33;;;4.93;;
1206;SDS011;593;53.184;8.216;2023-06-22T12:38:15;4.27;;;3.97;;
1206;SDS011;593;53.184;8.216;2023-06-22T12:40:41;3.70;;;3.50;;
1206;SDS011;593;53.184;8.216;2023-06-22T12:43:06;3.77;;;3.57;;
1206;SDS011;593;53.184;8.216;2023-06-22T12:45:32;4.50;;;4.20;;
1206;SDS011;593;53.184;8.216;2023-06-22T12:47:58;4.10;;;3.80;;
1206;SDS011;593;53.184;8.216;2023-06-22T12:50:24;4.77;;;4.47;;
1206;SDS011;593;53.184;8.216;2023-06-22T12:52:50;3.57;;;3.37;;
1206;SDS011;593;53.184;8.216;2023-06-22T12:55:15;3.93;;;3.70;;
1206;SDS011;593;53.184;8.216;2023-06-22T12:57:40;4.23;;;3.93;;
1206;SDS011;593;53.184;8.216;2023-06-22T13:00:06;3.87;;;3.57;;
1206;SDS011;593;53.184;8.216;2023-06-22T13:02:33;5.03;;;3.90;;
1206;SDS011;593;53.184;8.216;2023-06-22T13:04:58;3.90;;;3.63;;
1206;SDS011;593;53.184;8.216;2023-06-22T13:07:24;3.47;;;3.27;;
1206;SDS011;593;53.184;8.216;2023-06-22T13:09:49;4.37;;;4.07;;
1206;SDS011;593;53.184;8.216;2023-06-22T13:12:19;4.50;;;4.20;;
1206;SDS011;593;53.184;8.216;2023-06-22T13:14:47;4.27;;;4.00;;
1206;SDS011;593;53.184;8.216;2023-06-22T13:17:13;3.20;;;3.00;;
1206;SDS011;593;53.184;8.216;2023-06-22T13:19:39;4.10;;;3.90;;
1206;SDS011;593;53.184;8.216;2023-06-22T13:22:04;3.53;;;3.33;;
1206;SDS011;593;53.184;8.216;2023-06-22T13:24:30;4.53;;;4.23;;
1206;SDS011;593;53.184;8.216;2023-06-22T13:26:56;4.97;;;4.67;;
1206;SDS011;593;53.184;8.216;2023-06-22T13:29:21;4.67;;;4.27;;
1206;SDS011;593;53.184;8.216;2023-06-22T13:31:46;3.70;;;3.50;;
1206;SDS011;593;53.184;8.216;2023-06-22T13:34:11;3.77;;;3.50;;
1206;SDS011;593;53.184;8.216;2023-06-22T13:36:37;4.17;;;3.87;;
1206;SDS011;593;53.184;8.216;2023-06-22T13:39:02;3.60;;;3.40;;
1206;SDS011;593;53.184;8.216;2023-06-22T13:41:28;3.77;;;3.47;;
1206;SDS011;593;53.184;8.216;2023-06-22T13:43:54;2.90;;;2.70;;
1206;SDS011;593;53.184;8.216;2023-06-22T13:46:19;4.27;;;4.00;;
1206;SDS011;593;53.184;8.216;2023-06-22T13:48:44;4.03;;;3.73;;
1206;SDS011;593;53.184;8.216;2023-06-22T13:51:10;4.07;;;3.77;;
1206;SDS011;593;53.184;8.216;2023-06-22T13:53:35;3.70;;;3.40;;
1206;SDS011;593;53.184;8.216;2023-06-22T13:56:00;4.47;;;4.07;;
1206;SDS011;593;53.184;8.216;2023-06-22T13:58:26;3.60;;;3.30;;
1206;SDS011;593;53.184;8.216;2023-06-22T14:00:51;3.20;;;2.90;;
1206;SDS011;593;53.184;8.216;2023-06-22T14:03:16;3.90;;;3.57;;
1206;SDS011;593;53.184;8.216;2023-06-22T14:05:42;3.23;;;2.90;;
1206;SDS011;593;53.184;8.216;2023-06-22T14:08:08;3.37;;;3.17;;
1206;SDS011;593;53.184;8.216;2023-06-22T14:10:34;3.23;;;3.03;;
1206;SDS011;593;53.184;8.216;2023-06-22T14:12:59;4.13;;;3.63;;
1206;SDS011;593;53.184;8.216;2023-06-22T14:15:25;3.60;;;3.30;;
1206;SDS011;593;53.184;8.216;2023-06-22T14:17:51;5.43;;;4.50;;
1206;SDS011;593;53.184;8.216;2023-06-22T14:20:16;4.07;;;3.70;;
1206;SDS011;593;53.184;8.216;2023-06-22T14:22:42;4.73;;;4.20;;
1206;SDS011;593;53.184;8.216;2023-06-22T14:25:07;3.83;;;3.43;;
1206;SDS011;593;53.184;8.216;2023-06-22T14:27:33;3.60;;;3.40;;
1206;SDS011;593;53.184;8.216;2023-06-22T14:29:58;4.47;;;3.90;;
1206;SDS011;593;53.184;8.216;2023-06-22T14:32:23;4.20;;;3.90;;
1206;SDS011;593;53.184;8.216;2023-06-22T14:34:49;4.17;;;3.87;;
1206;SDS011;593;53.184;8.216;2023-06-22T14:37:15;3.53;;;2.90;;
1206;SDS011;593;53.184;8.216;2023-06-22T14:39:40;4.03;;;3.63;;
1206;SDS011;593;53.184;8.216;2023-06-22T14:42:05;5.83;;;3.80;;
1206;SDS011;593;53.184;8.216;2023-06-22T14:44:31;4.67;;;3.30;;
1206;SDS011;593;53.184;8.216;2023-06-22T14:46:57;4.40;;;4.00;;
1206;SDS011;593;53.184;8.216;2023-06-22T14:49:22;3.60;;;3.30;;
1206;SDS011;593;53.184;8.216;2023-06-22T14:51:48;4.00;;;3.67;;
1206;SDS011;593;53.184;8.216;2023-06-22T14:54:13;4.07;;;3.77;;
1206;SDS011;593;53.184;8.216;2023-06-22T14:56:39;4.50;;;3.97;;
1206;SDS011;593;53.184;8.216;2023-06-22T14:59:04;5.40;;;3.27;;
1206;SDS011;593;53.184;8.216;2023-06-22T15:01:30;3.13;;;2.83;;
1206;SDS011;593;53.184;8.216;2023-06-22T15:03:55;3.90;;;3.30;;
1206;SDS011;593;53.184;8.216;2023-06-22T15:06:21;2.83;;;2.63;;
1206;SDS011;593;53.184;8.216;2023-06-22T15:08:46;4.60;;;4.13;;
1206;SDS011;593;53.184;8.216;2023-06-22T15:11:11;3.27;;;3.07;;
1206;SDS011;593;53.184;8.216;2023-06-22T15:13:40;2.97;;;2.77;;
1206;SDS011;593;53.184;8.216;2023-06-22T15:16:06;3.90;;;3.47;;
1206;SDS011;593;53.184;8.216;2023-06-22T15:18:32;3.40;;;3.10;;
1206;SDS011;593;53.184;8.216;2023-06-22T15:21:00;3.90;;;2.80;;